sensor_id;sensor_type;location;lat;lon;timestamp;temperature;humidity
10911;DHT22;5508;49.150;11.030;2023-02-14T00:00:26;0.90;99.90
10911;DHT22;5508;49.150;11.030;2023-02-14T00:03:27;0.90;99.90
10911;DHT22;5508;49.150;11.030;2023-02-14T00:06:30;0.90;99.90
10911;DHT22;5508;49.150;11.030;2023-02-14T00:09:32;0.80;99.90
10911;DHT22;5508;49.150;11.030;2023-02-14T00:12:32;0.90;99.90
10911;DHT22;5508;49.150;11.030;2023-02-14T00:15:33;0.80;99.90
10911;DHT22;5508;49.150;11.030;2023-02-14T00:18:33;0.90;99.90
10911;DHT22;5508;49.150;11.030;2023-02-14T00:21:53;0.90;99.90
10911;DHT22;5508;49.150;11.030;2023-02-14T00:24:53;0.80;99.90
10911;DHT22;5508;49.150;11.030;2023-02-14T00:27:54;0.80;99.90
10911;DHT22;5508;49.150;11.030;2023-02-14T00:31:00;0.80;99.90
10911;DHT22;5508;49.150;11.030;2023-02-14T00:34:01;0.80;99.90
10911;DHT22;5508;49.150;11.030;2023-02-14T00:37:02;0.90;99.90
10911;DHT22;5508;49.150;11.030;2023-02-14T00:40:04;0.90;99.90
10911;DHT22;5508;49.150;11.030;2023-02-14T00:43:05;0.90;99.90
10911;DHT22;5508;49.150;11.030;2023-02-14T00:46:06;0.90;99.90
10911;DHT22;5508;49.150;11.030;2023-02-14T00:49:06;0.80;99.90
10911;DHT22;5508;49.150;11.030;2023-02-14T00:52:07;0.80;99.90
10911;DHT22;5508;49.150;11.030;2023-02-14T00:55:08;0.80;99.90
10911;DHT22;5508;49.150;11.030;2023-02-14T00:58:08;0.80;99.90
10911;DHT22;5508;49.150;11.030;2023-02-14T01:01:10;0.80;99.90
10911;DHT22;5508;49.150;11.030;2023-02-14T01:04:10;0.80;99.90
10911;DHT22;5508;49.150;11.030;2023-02-14T01:07:11;0.80;99.90
10911;DHT22;5508;49.150;11.030;2023-02-14T01:10:12;0.80;99.90
10911;DHT22;5508;49.150;11.030;2023-02-14T01:13:13;0.80;99.90
10911;DHT22;5508;49.150;11.030;2023-02-14T01:16:19;0.80;99.90
10911;DHT22;5508;49.150;11.030;2023-02-14T01:19:20;0.80;99.90
10911;DHT22;5508;49.150;11.030;2023-02-14T01:22:21;0.70;99.90
10911;DHT22;5508;49.150;11.030;2023-02-14T01:25:21;0.70;99.90
10911;DHT22;5508;49.150;11.030;2023-02-14T01:28:22;0.70;99.90
10911;DHT22;5508;49.150;11.030;2023-02-14T01:31:25;0.70;99.90
10911;DHT22;5508;49.150;11.030;2023-02-14T01:34:27;0.70;99.90
10911;DHT22;5508;49.150;11.030;2023-02-14T01:37:29;0.70;99.90
10911;DHT22;5508;49.150;11.030;2023-02-14T01:40:30;0.70;99.90
10911;DHT22;5508;49.150;11.030;2023-02-14T01:43:30;0.70;99.90
10911;DHT22;5508;49.150;11.030;2023-02-14T01:46:35;0.70;99.90
10911;DHT22;5508;49.150;11.030;2023-02-14T01:49:40;0.70;99.90
10911;DHT22;5508;49.150;11.030;2023-02-14T01:53:03;0.70;99.90
10911;DHT22;5508;49.150;11.030;2023-02-14T01:56:09;0.50;99.90
10911;DHT22;5508;49.150;11.030;2023-02-14T01:59:15;0.50;99.90
10911;DHT22;5508;49.150;11.030;2023-02-14T02:02:17;0.40;99.90
10911;DHT22;5508;49.150;11.030;2023-02-14T02:05:22;0.40;99.90
10911;DHT22;5508;49.150;11.030;2023-02-14T02:08:24;0.50;99.90
10911;DHT22;5508;49.150;11.030;2023-02-14T02:11:25;0.40;99.90
10911;DHT22;5508;49.150;11.030;2023-02-14T02:14:26;0.40;99.90
10911;DHT22;5508;49.150;11.030;2023-02-14T02:21:03;0.50;99.90
10911;DHT22;5508;49.150;11.030;2023-02-14T02:27:44;0.40;99.90
10911;DHT22;5508;49.150;11.030;2023-02-14T02:47:03;0.30;99.90
10911;DHT22;5508;49.150;11.030;2023-02-14T02:53:51;0.40;99.90
10911;DHT22;5508;49.150;11.030;2023-02-14T02:56:55;0.40;99.90
10911;DHT22;5508;49.150;11.030;2023-02-14T02:59:56;0.40;99.90
10911;DHT22;5508;49.150;11.030;2023-02-14T03:02:58;0.40;99.90
10911;DHT22;5508;49.150;11.030;2023-02-14T03:06:25;0.40;99.90
10911;DHT22;5508;49.150;11.030;2023-02-14T03:15:52;0.40;99.90
10911;DHT22;5508;49.150;11.030;2023-02-14T03:19:12;0.50;99.90
10911;DHT22;5508;49.150;11.030;2023-02-14T03:26:50;0.40;99.90
10911;DHT22;5508;49.150;11.030;2023-02-14T03:36:18;0.30;99.90
10911;DHT22;5508;49.150;11.030;2023-02-14T03:39:55;0.40;99.90
10911;DHT22;5508;49.150;11.030;2023-02-14T03:43:06;0.30;99.90
10911;DHT22;5508;49.150;11.030;2023-02-14T03:46:24;0.30;99.90
10911;DHT22;5508;49.150;11.030;2023-02-14T03:49:29;0.30;99.90
10911;DHT22;5508;49.150;11.030;2023-02-14T03:52:33;0.30;99.90
10911;DHT22;5508;49.150;11.030;2023-02-14T03:59:16;0.30;99.90
10911;DHT22;5508;49.150;11.030;2023-02-14T04:02:25;0.30;99.90
10911;DHT22;5508;49.150;11.030;2023-02-14T04:05:27;0.30;99.90
10911;DHT22;5508;49.150;11.030;2023-02-14T04:08:28;0.30;99.90
10911;DHT22;5508;49.150;11.030;2023-02-14T04:11:29;0.30;99.90
10911;DHT22;5508;49.150;11.030;2023-02-14T04:14:35;0.30;99.90
10911;DHT22;5508;49.150;11.030;2023-02-14T04:17:35;0.20;99.90
10911;DHT22;5508;49.150;11.030;2023-02-14T04:20:54;0.20;99.90
10911;DHT22;5508;49.150;11.030;2023-02-14T04:23:55;0.30;99.90
10911;DHT22;5508;49.150;11.030;2023-02-14T04:26:55;0.30;99.90
10911;DHT22;5508;49.150;11.030;2023-02-14T04:30:12;0.20;99.90
10911;DHT22;5508;49.150;11.030;2023-02-14T04:33:12;0.20;99.90
10911;DHT22;5508;49.150;11.030;2023-02-14T04:36:13;0.20;99.90
10911;DHT22;5508;49.150;11.030;2023-02-14T04:39:14;0.20;99.90
10911;DHT22;5508;49.150;11.030;2023-02-14T04:42:14;0.30;99.90
10911;DHT22;5508;49.150;11.030;2023-02-14T04:45:15;0.30;99.90
10911;DHT22;5508;49.150;11.030;2023-02-14T04:48:16;0.20;99.90
10911;DHT22;5508;49.150;11.030;2023-02-14T04:51:16;0.20;99.90
10911;DHT22;5508;49.150;11.030;2023-02-14T04:54:17;0.20;99.90
10911;DHT22;5508;49.150;11.030;2023-02-14T04:57:18;0.20;99.90
10911;DHT22;5508;49.150;11.030;2023-02-14T05:00:18;0.30;99.90
10911;DHT22;5508;49.150;11.030;2023-02-14T05:03:19;0.30;99.90
10911;DHT22;5508;49.150;11.030;2023-02-14T05:06:20;0.30;99.90
10911;DHT22;5508;49.150;11.030;2023-02-14T05:09:20;0.20;99.90
10911;DHT22;5508;49.150;11.030;2023-02-14T05:12:21;0.30;99.90
10911;DHT22;5508;49.150;11.030;2023-02-14T05:15:21;0.30;99.90
10911;DHT22;5508;49.150;11.030;2023-02-14T05:18:22;0.30;99.90
10911;DHT22;5508;49.150;11.030;2023-02-14T05:21:23;0.30;99.90
10911;DHT22;5508;49.150;11.030;2023-02-14T05:24:23;0.30;99.90
10911;DHT22;5508;49.150;11.030;2023-02-14T05:27:24;0.20;99.90
10911;DHT22;5508;49.150;11.030;2023-02-14T05:30:25;0.20;99.90
10911;DHT22;5508;49.150;11.030;2023-02-14T05:33:27;0.20;99.90
10911;DHT22;5508;49.150;11.030;2023-02-14T05:36:27;0.30;99.90
10911;DHT22;5508;49.150;11.030;2023-02-14T05:39:28;0.30;99.90
10911;DHT22;5508;49.150;11.030;2023-02-14T05:42:29;0.20;99.90
10911;DHT22;5508;49.150;11.030;2023-02-14T05:45:29;0.20;99.90
10911;DHT22;5508;49.150;11.030;2023-02-14T05:48:30;0.20;99.90
10911;DHT22;5508;49.150;11.030;2023-02-14T05:51:31;0.20;99.90
10911;DHT22;5508;49.150;11.030;2023-02-14T05:54:31;0.20;99.90
10911;DHT22;5508;49.150;11.030;2023-02-14T05:57:32;0.10;99.90
10911;DHT22;5508;49.150;11.030;2023-02-14T06:00:33;0.20;99.90
10911;DHT22;5508;49.150;11.030;2023-02-14T06:03:34;0.10;99.90
10911;DHT22;5508;49.150;11.030;2023-02-14T06:06:34;0.00;99.90
10911;DHT22;5508;49.150;11.030;2023-02-14T06:09:35;0.20;99.90
10911;DHT22;5508;49.150;11.030;2023-02-14T06:12:35;0.10;99.90
10911;DHT22;5508;49.150;11.030;2023-02-14T06:15:37;0.10;99.90
10911;DHT22;5508;49.150;11.030;2023-02-14T06:18:37;0.20;99.90
10911;DHT22;5508;49.150;11.030;2023-02-14T06:21:38;0.20;99.90
10911;DHT22;5508;49.150;11.030;2023-02-14T06:24:38;0.20;99.90
10911;DHT22;5508;49.150;11.030;2023-02-14T06:27:39;0.20;99.90
10911;DHT22;5508;49.150;11.030;2023-02-14T06:30:40;0.30;99.90
10911;DHT22;5508;49.150;11.030;2023-02-14T06:33:40;0.20;99.90
10911;DHT22;5508;49.150;11.030;2023-02-14T06:36:41;0.20;99.90
10911;DHT22;5508;49.150;11.030;2023-02-14T06:39:41;0.10;99.90
10911;DHT22;5508;49.150;11.030;2023-02-14T06:42:42;0.10;99.90
10911;DHT22;5508;49.150;11.030;2023-02-14T06:45:45;0.00;99.90
10911;DHT22;5508;49.150;11.030;2023-02-14T06:48:46;0.10;99.90
10911;DHT22;5508;49.150;11.030;2023-02-14T06:51:47;0.20;99.90
10911;DHT22;5508;49.150;11.030;2023-02-14T06:54:47;0.20;99.90
10911;DHT22;5508;49.150;11.030;2023-02-14T06:57:48;0.20;99.90
10911;DHT22;5508;49.150;11.030;2023-02-14T07:00:48;0.20;99.90
10911;DHT22;5508;49.150;11.030;2023-02-14T07:03:49;0.20;99.90
10911;DHT22;5508;49.150;11.030;2023-02-14T07:06:50;0.30;99.90
10911;DHT22;5508;49.150;11.030;2023-02-14T07:09:50;0.30;99.90
10911;DHT22;5508;49.150;11.030;2023-02-14T07:12:51;0.30;99.90
10911;DHT22;5508;49.150;11.030;2023-02-14T07:15:52;0.30;99.90
10911;DHT22;5508;49.150;11.030;2023-02-14T07:18:52;0.30;99.90
10911;DHT22;5508;49.150;11.030;2023-02-14T07:21:53;0.30;99.90
10911;DHT22;5508;49.150;11.030;2023-02-14T07:24:53;0.30;99.90
10911;DHT22;5508;49.150;11.030;2023-02-14T07:27:54;0.30;99.90
10911;DHT22;5508;49.150;11.030;2023-02-14T07:30:58;0.30;99.90
10911;DHT22;5508;49.150;11.030;2023-02-14T07:34:00;0.40;99.90
10911;DHT22;5508;49.150;11.030;2023-02-14T07:37:00;0.40;99.90
10911;DHT22;5508;49.150;11.030;2023-02-14T07:40:03;0.40;99.90
10911;DHT22;5508;49.150;11.030;2023-02-14T07:43:03;0.50;99.90
10911;DHT22;5508;49.150;11.030;2023-02-14T07:46:04;0.50;99.90
10911;DHT22;5508;49.150;11.030;2023-02-14T07:49:05;0.50;99.90
10911;DHT22;5508;49.150;11.030;2023-02-14T07:52:05;0.60;99.90
10911;DHT22;5508;49.150;11.030;2023-02-14T07:55:06;0.50;99.90
10911;DHT22;5508;49.150;11.030;2023-02-14T07:58:07;0.60;99.90
10911;DHT22;5508;49.150;11.030;2023-02-14T08:01:07;0.60;99.90
10911;DHT22;5508;49.150;11.030;2023-02-14T08:04:08;0.80;99.90
10911;DHT22;5508;49.150;11.030;2023-02-14T08:07:09;0.80;99.90
10911;DHT22;5508;49.150;11.030;2023-02-14T08:10:10;0.80;99.90
10911;DHT22;5508;49.150;11.030;2023-02-14T08:13:11;0.80;99.90
10911;DHT22;5508;49.150;11.030;2023-02-14T08:16:11;0.80;99.90
10911;DHT22;5508;49.150;11.030;2023-02-14T08:19:12;0.80;99.90
10911;DHT22;5508;49.150;11.030;2023-02-14T08:22:12;0.90;99.90
10911;DHT22;5508;49.150;11.030;2023-02-14T08:25:13;1.00;99.90
10911;DHT22;5508;49.150;11.030;2023-02-14T08:28:14;1.00;99.90
10911;DHT22;5508;49.150;11.030;2023-02-14T08:31:25;1.10;99.90
10911;DHT22;5508;49.150;11.030;2023-02-14T08:34:26;1.10;99.90
10911;DHT22;5508;49.150;11.030;2023-02-14T08:37:26;1.10;99.90
10911;DHT22;5508;49.150;11.030;2023-02-14T08:40:27;1.10;99.90
10911;DHT22;5508;49.150;11.030;2023-02-14T08:43:28;1.10;99.90
10911;DHT22;5508;49.150;11.030;2023-02-14T08:46:28;1.00;99.90
10911;DHT22;5508;49.150;11.030;2023-02-14T08:49:29;1.00;99.90
10911;DHT22;5508;49.150;11.030;2023-02-14T08:52:30;1.10;99.90
10911;DHT22;5508;49.150;11.030;2023-02-14T08:55:30;1.20;99.90
10911;DHT22;5508;49.150;11.030;2023-02-14T08:58:31;1.40;99.90
10911;DHT22;5508;49.150;11.030;2023-02-14T09:01:32;1.40;99.90
10911;DHT22;5508;49.150;11.030;2023-02-14T09:04:34;1.50;99.90
10911;DHT22;5508;49.150;11.030;2023-02-14T09:07:34;1.60;99.90
10911;DHT22;5508;49.150;11.030;2023-02-14T09:10:35;1.60;99.90
10911;DHT22;5508;49.150;11.030;2023-02-14T09:13:36;1.60;99.90
10911;DHT22;5508;49.150;11.030;2023-02-14T09:16:37;1.50;99.90
10911;DHT22;5508;49.150;11.030;2023-02-14T09:19:38;1.60;99.90
10911;DHT22;5508;49.150;11.030;2023-02-14T09:22:38;1.70;99.90
10911;DHT22;5508;49.150;11.030;2023-02-14T09:25:39;1.70;99.90
10911;DHT22;5508;49.150;11.030;2023-02-14T09:28:40;1.70;99.90
10911;DHT22;5508;49.150;11.030;2023-02-14T09:31:41;1.80;99.90
10911;DHT22;5508;49.150;11.030;2023-02-14T09:34:41;1.80;99.90
10911;DHT22;5508;49.150;11.030;2023-02-14T09:38:01;1.80;99.90
10911;DHT22;5508;49.150;11.030;2023-02-14T09:44:40;1.90;99.90
10911;DHT22;5508;49.150;11.030;2023-02-14T09:47:55;2.00;99.90
10911;DHT22;5508;49.150;11.030;2023-02-14T09:51:06;2.10;99.90
10911;DHT22;5508;49.150;11.030;2023-02-14T09:54:15;2.00;99.90
10911;DHT22;5508;49.150;11.030;2023-02-14T10:04:20;2.30;99.90
10911;DHT22;5508;49.150;11.030;2023-02-14T10:11:05;2.30;99.90
10911;DHT22;5508;49.150;11.030;2023-02-14T10:14:28;2.20;99.90
10911;DHT22;5508;49.150;11.030;2023-02-14T10:20:41;2.50;99.90
10911;DHT22;5508;49.150;11.030;2023-02-14T10:23:50;2.60;99.90
10911;DHT22;5508;49.150;11.030;2023-02-14T10:27:00;2.70;99.90
10911;DHT22;5508;49.150;11.030;2023-02-14T10:33:18;3.20;96.90
10911;DHT22;5508;49.150;11.030;2023-02-14T10:43:17;3.40;95.70
10911;DHT22;5508;49.150;11.030;2023-02-14T10:46:35;3.60;94.50
10911;DHT22;5508;49.150;11.030;2023-02-14T10:50:06;3.70;95.70
10911;DHT22;5508;49.150;11.030;2023-02-14T10:56:34;4.00;92.00
10911;DHT22;5508;49.150;11.030;2023-02-14T11:00:02;4.10;93.50
10911;DHT22;5508;49.150;11.030;2023-02-14T11:03:07;4.10;92.00
10911;DHT22;5508;49.150;11.030;2023-02-14T11:06:09;4.20;91.50
10911;DHT22;5508;49.150;11.030;2023-02-14T11:09:10;4.30;91.60
10911;DHT22;5508;49.150;11.030;2023-02-14T11:12:11;4.40;91.30
10911;DHT22;5508;49.150;11.030;2023-02-14T11:15:31;4.40;88.90
10911;DHT22;5508;49.150;11.030;2023-02-14T11:18:33;4.60;89.20
10911;DHT22;5508;49.150;11.030;2023-02-14T11:21:40;4.70;90.10
10911;DHT22;5508;49.150;11.030;2023-02-14T11:24:42;4.70;90.00
10911;DHT22;5508;49.150;11.030;2023-02-14T11:27:46;4.80;88.40
10911;DHT22;5508;49.150;11.030;2023-02-14T11:30:50;4.90;86.60
10911;DHT22;5508;49.150;11.030;2023-02-14T11:33:51;4.90;87.70
10911;DHT22;5508;49.150;11.030;2023-02-14T11:36:53;4.90;87.70
10911;DHT22;5508;49.150;11.030;2023-02-14T11:39:55;4.80;86.20
10911;DHT22;5508;49.150;11.030;2023-02-14T11:42:59;5.00;88.20
10911;DHT22;5508;49.150;11.030;2023-02-14T11:46:24;5.20;86.30
10911;DHT22;5508;49.150;11.030;2023-02-14T11:49:33;5.90;83.50
10911;DHT22;5508;49.150;11.030;2023-02-14T11:52:47;6.20;83.00
10911;DHT22;5508;49.150;11.030;2023-02-14T11:55:57;6.70;82.50
10911;DHT22;5508;49.150;11.030;2023-02-14T11:59:02;7.20;79.80
10911;DHT22;5508;49.150;11.030;2023-02-14T12:02:20;7.20;76.60
10911;DHT22;5508;49.150;11.030;2023-02-14T12:05:25;6.60;78.60
10911;DHT22;5508;49.150;11.030;2023-02-14T12:08:29;6.90;80.80
10911;DHT22;5508;49.150;11.030;2023-02-14T12:11:31;7.00;76.40
10911;DHT22;5508;49.150;11.030;2023-02-14T12:14:34;6.50;77.70
10911;DHT22;5508;49.150;11.030;2023-02-14T12:17:36;6.30;81.40
10911;DHT22;5508;49.150;11.030;2023-02-14T12:20:48;6.00;80.10
10911;DHT22;5508;49.150;11.030;2023-02-14T12:24:12;5.90;81.40
10911;DHT22;5508;49.150;11.030;2023-02-14T12:27:24;5.90;83.60
10911;DHT22;5508;49.150;11.030;2023-02-14T12:30:32;5.80;80.20
10911;DHT22;5508;49.150;11.030;2023-02-14T12:33:33;5.40;83.70
10911;DHT22;5508;49.150;11.030;2023-02-14T12:40:09;5.80;85.60
10911;DHT22;5508;49.150;11.030;2023-02-14T12:43:29;5.90;84.40
10911;DHT22;5508;49.150;11.030;2023-02-14T12:50:11;5.90;82.10
10911;DHT22;5508;49.150;11.030;2023-02-14T13:13:14;5.60;86.00
10911;DHT22;5508;49.150;11.030;2023-02-14T13:16:33;5.60;84.50
10911;DHT22;5508;49.150;11.030;2023-02-14T13:19:55;5.70;85.30
10911;DHT22;5508;49.150;11.030;2023-02-14T13:23:03;5.90;85.20
10911;DHT22;5508;49.150;11.030;2023-02-14T13:26:09;5.80;83.30
10911;DHT22;5508;49.150;11.030;2023-02-14T13:29:18;5.80;83.40
10911;DHT22;5508;49.150;11.030;2023-02-14T13:32:23;5.70;84.30
10911;DHT22;5508;49.150;11.030;2023-02-14T13:35:27;5.80;84.20
10911;DHT22;5508;49.150;11.030;2023-02-14T13:38:29;5.60;84.60
10911;DHT22;5508;49.150;11.030;2023-02-14T13:41:30;5.40;85.30
10911;DHT22;5508;49.150;11.030;2023-02-14T13:44:41;5.50;87.50
10911;DHT22;5508;49.150;11.030;2023-02-14T13:47:42;5.60;86.70
10911;DHT22;5508;49.150;11.030;2023-02-14T13:51:04;5.60;85.20
10911;DHT22;5508;49.150;11.030;2023-02-14T13:54:20;5.60;86.50
10911;DHT22;5508;49.150;11.030;2023-02-14T13:57:33;5.60;84.40
10911;DHT22;5508;49.150;11.030;2023-02-14T14:00:41;5.60;84.70
10911;DHT22;5508;49.150;11.030;2023-02-14T14:10:03;5.80;86.00
10911;DHT22;5508;49.150;11.030;2023-02-14T14:13:06;5.80;87.30
10911;DHT22;5508;49.150;11.030;2023-02-14T14:16:33;6.10;86.00
10911;DHT22;5508;49.150;11.030;2023-02-14T14:19:36;6.30;84.10
10911;DHT22;5508;49.150;11.030;2023-02-14T14:22:49;6.30;83.90
10911;DHT22;5508;49.150;11.030;2023-02-14T14:25:50;6.50;83.80
10911;DHT22;5508;49.150;11.030;2023-02-14T14:28:51;6.40;81.10
10911;DHT22;5508;49.150;11.030;2023-02-14T14:31:52;6.30;82.80
10911;DHT22;5508;49.150;11.030;2023-02-14T14:38:00;6.40;81.90
10911;DHT22;5508;49.150;11.030;2023-02-14T14:41:01;6.00;83.00
10911;DHT22;5508;49.150;11.030;2023-02-14T14:44:03;5.80;85.10
10911;DHT22;5508;49.150;11.030;2023-02-14T14:47:04;5.90;85.40
10911;DHT22;5508;49.150;11.030;2023-02-14T14:50:12;5.80;85.20
10911;DHT22;5508;49.150;11.030;2023-02-14T14:56:54;5.40;85.80
10911;DHT22;5508;49.150;11.030;2023-02-14T15:00:21;5.40;87.80
10911;DHT22;5508;49.150;11.030;2023-02-14T15:03:24;5.40;87.10
10911;DHT22;5508;49.150;11.030;2023-02-14T15:06:26;5.40;87.40
10911;DHT22;5508;49.150;11.030;2023-02-14T15:09:31;5.30;86.80
10911;DHT22;5508;49.150;11.030;2023-02-14T15:12:31;5.20;87.30
10911;DHT22;5508;49.150;11.030;2023-02-14T15:15:52;5.10;88.50
10911;DHT22;5508;49.150;11.030;2023-02-14T15:22:37;4.80;88.60
10911;DHT22;5508;49.150;11.030;2023-02-14T15:25:45;4.50;91.00
10911;DHT22;5508;49.150;11.030;2023-02-14T15:29:02;4.30;91.70
10911;DHT22;5508;49.150;11.030;2023-02-14T15:32:04;4.20;92.50
10911;DHT22;5508;49.150;11.030;2023-02-14T15:35:05;4.00;93.60
10911;DHT22;5508;49.150;11.030;2023-02-14T15:38:09;3.90;94.10
10911;DHT22;5508;49.150;11.030;2023-02-14T15:41:12;3.80;95.50
10911;DHT22;5508;49.150;11.030;2023-02-14T15:44:22;3.70;96.30
10911;DHT22;5508;49.150;11.030;2023-02-14T15:47:23;3.60;96.70
10911;DHT22;5508;49.150;11.030;2023-02-14T15:50:26;3.50;97.20
10911;DHT22;5508;49.150;11.030;2023-02-14T15:53:40;3.40;98.20
10911;DHT22;5508;49.150;11.030;2023-02-14T15:56:44;3.50;98.80
10911;DHT22;5508;49.150;11.030;2023-02-14T15:59:46;3.60;98.90
10911;DHT22;5508;49.150;11.030;2023-02-14T16:03:05;3.60;98.60
10911;DHT22;5508;49.150;11.030;2023-02-14T16:09:33;3.30;98.60
10911;DHT22;5508;49.150;11.030;2023-02-14T16:12:35;3.10;99.40
10911;DHT22;5508;49.150;11.030;2023-02-14T16:15:38;2.90;99.90
10911;DHT22;5508;49.150;11.030;2023-02-14T16:18:47;2.70;99.90
10911;DHT22;5508;49.150;11.030;2023-02-14T16:21:55;2.60;99.90
10911;DHT22;5508;49.150;11.030;2023-02-14T16:24:59;2.50;99.90
10911;DHT22;5508;49.150;11.030;2023-02-14T16:28:00;2.40;99.90
10911;DHT22;5508;49.150;11.030;2023-02-14T16:31:01;2.20;99.90
10911;DHT22;5508;49.150;11.030;2023-02-14T16:34:02;2.10;99.90
10911;DHT22;5508;49.150;11.030;2023-02-14T16:37:08;2.00;99.90
10911;DHT22;5508;49.150;11.030;2023-02-14T16:40:19;1.80;99.90
10911;DHT22;5508;49.150;11.030;2023-02-14T16:43:22;1.60;99.90
10911;DHT22;5508;49.150;11.030;2023-02-14T16:46:31;1.60;99.90
10911;DHT22;5508;49.150;11.030;2023-02-14T16:49:32;1.30;99.90
10911;DHT22;5508;49.150;11.030;2023-02-14T16:52:32;1.20;99.90
10911;DHT22;5508;49.150;11.030;2023-02-14T16:55:33;1.10;99.90
10911;DHT22;5508;49.150;11.030;2023-02-14T16:58:35;1.00;99.90
10911;DHT22;5508;49.150;11.030;2023-02-14T17:01:36;1.00;99.90
10911;DHT22;5508;49.150;11.030;2023-02-14T17:04:36;1.00;99.90
10911;DHT22;5508;49.150;11.030;2023-02-14T17:07:39;1.00;99.90
10911;DHT22;5508;49.150;11.030;2023-02-14T17:10:42;0.90;99.90
10911;DHT22;5508;49.150;11.030;2023-02-14T17:13:44;0.80;99.90
10911;DHT22;5508;49.150;11.030;2023-02-14T17:16:46;0.70;99.90
10911;DHT22;5508;49.150;11.030;2023-02-14T17:19:46;0.60;99.90
10911;DHT22;5508;49.150;11.030;2023-02-14T17:22:47;0.50;99.90
10911;DHT22;5508;49.150;11.030;2023-02-14T17:25:48;0.30;99.90
10911;DHT22;5508;49.150;11.030;2023-02-14T17:28:48;0.30;99.90
10911;DHT22;5508;49.150;11.030;2023-02-14T17:31:49;0.20;99.90
10911;DHT22;5508;49.150;11.030;2023-02-14T17:34:49;0.20;99.90
10911;DHT22;5508;49.150;11.030;2023-02-14T17:37:50;0.30;99.90
10911;DHT22;5508;49.150;11.030;2023-02-14T17:40:50;0.50;99.90
10911;DHT22;5508;49.150;11.030;2023-02-14T17:43:52;0.50;99.90
10911;DHT22;5508;49.150;11.030;2023-02-14T17:46:59;0.60;99.90
10911;DHT22;5508;49.150;11.030;2023-02-14T17:50:00;0.70;99.90
10911;DHT22;5508;49.150;11.030;2023-02-14T17:53:02;0.90;99.90
10911;DHT22;5508;49.150;11.030;2023-02-14T17:56:15;0.90;99.90
10911;DHT22;5508;49.150;11.030;2023-02-14T17:59:19;0.90;99.90
10911;DHT22;5508;49.150;11.030;2023-02-14T18:02:20;0.80;99.90
10911;DHT22;5508;49.150;11.030;2023-02-14T18:05:20;0.70;99.90
10911;DHT22;5508;49.150;11.030;2023-02-14T18:08:21;0.70;99.90
10911;DHT22;5508;49.150;11.030;2023-02-14T18:11:23;0.70;99.90
10911;DHT22;5508;49.150;11.030;2023-02-14T18:14:25;0.60;99.90
10911;DHT22;5508;49.150;11.030;2023-02-14T18:17:25;0.70;99.90
10911;DHT22;5508;49.150;11.030;2023-02-14T18:20:26;0.70;99.90
10911;DHT22;5508;49.150;11.030;2023-02-14T18:23:27;0.60;99.90
10911;DHT22;5508;49.150;11.030;2023-02-14T18:26:30;0.70;99.90
10911;DHT22;5508;49.150;11.030;2023-02-14T18:29:31;0.60;99.90
10911;DHT22;5508;49.150;11.030;2023-02-14T18:32:32;0.60;99.90
10911;DHT22;5508;49.150;11.030;2023-02-14T18:35:33;0.50;99.90
10911;DHT22;5508;49.150;11.030;2023-02-14T18:38:34;0.40;99.90
10911;DHT22;5508;49.150;11.030;2023-02-14T18:41:35;0.40;99.90
10911;DHT22;5508;49.150;11.030;2023-02-14T18:44:35;0.30;99.90
10911;DHT22;5508;49.150;11.030;2023-02-14T18:47:36;0.30;99.90
10911;DHT22;5508;49.150;11.030;2023-02-14T18:50:37;0.40;99.90
10911;DHT22;5508;49.150;11.030;2023-02-14T18:53:38;0.40;99.90
10911;DHT22;5508;49.150;11.030;2023-02-14T18:56:39;0.40;99.90
10911;DHT22;5508;49.150;11.030;2023-02-14T18:59:39;0.30;99.90
10911;DHT22;5508;49.150;11.030;2023-02-14T19:02:40;0.20;99.90
10911;DHT22;5508;49.150;11.030;2023-02-14T19:05:41;0.20;99.90
10911;DHT22;5508;49.150;11.030;2023-02-14T19:08:42;0.20;99.90
10911;DHT22;5508;49.150;11.030;2023-02-14T19:11:43;0.10;99.90
10911;DHT22;5508;49.150;11.030;2023-02-14T19:14:44;0.00;99.90
10911;DHT22;5508;49.150;11.030;2023-02-14T19:17:45;-0.10;99.90
10911;DHT22;5508;49.150;11.030;2023-02-14T19:20:45;-0.20;99.90
10911;DHT22;5508;49.150;11.030;2023-02-14T19:23:47;-0.20;99.90
10911;DHT22;5508;49.150;11.030;2023-02-14T19:26:48;-0.20;99.90
10911;DHT22;5508;49.150;11.030;2023-02-14T19:29:48;-0.10;99.90
10911;DHT22;5508;49.150;11.030;2023-02-14T19:32:49;-0.10;99.90
10911;DHT22;5508;49.150;11.030;2023-02-14T19:35:58;-0.20;99.90
10911;DHT22;5508;49.150;11.030;2023-02-14T19:38:59;-0.30;99.90
10911;DHT22;5508;49.150;11.030;2023-02-14T19:42:00;-0.40;99.90
10911;DHT22;5508;49.150;11.030;2023-02-14T19:45:01;-0.40;99.90
10911;DHT22;5508;49.150;11.030;2023-02-14T19:48:02;-0.30;99.90
10911;DHT22;5508;49.150;11.030;2023-02-14T19:51:03;-0.30;99.90
10911;DHT22;5508;49.150;11.030;2023-02-14T19:54:05;-0.40;99.90
10911;DHT22;5508;49.150;11.030;2023-02-14T19:57:06;-0.40;99.90
10911;DHT22;5508;49.150;11.030;2023-02-14T20:00:07;-0.50;99.90
10911;DHT22;5508;49.150;11.030;2023-02-14T20:03:10;-0.50;99.90
10911;DHT22;5508;49.150;11.030;2023-02-14T20:06:10;-0.60;99.90
10911;DHT22;5508;49.150;11.030;2023-02-14T20:09:12;-0.60;99.90
10911;DHT22;5508;49.150;11.030;2023-02-14T20:12:13;-0.50;99.90
10911;DHT22;5508;49.150;11.030;2023-02-14T20:15:13;-0.50;99.90
10911;DHT22;5508;49.150;11.030;2023-02-14T20:18:14;-0.50;99.90
10911;DHT22;5508;49.150;11.030;2023-02-14T20:21:17;-0.40;99.90
10911;DHT22;5508;49.150;11.030;2023-02-14T20:24:23;-0.40;99.90
10911;DHT22;5508;49.150;11.030;2023-02-14T20:27:24;-0.50;99.90
10911;DHT22;5508;49.150;11.030;2023-02-14T20:30:25;-0.60;99.90
10911;DHT22;5508;49.150;11.030;2023-02-14T20:33:25;-0.70;99.90
10911;DHT22;5508;49.150;11.030;2023-02-14T20:36:27;-0.70;99.90
10911;DHT22;5508;49.150;11.030;2023-02-14T20:39:29;-0.70;99.90
10911;DHT22;5508;49.150;11.030;2023-02-14T20:42:30;-0.80;99.90
10911;DHT22;5508;49.150;11.030;2023-02-14T20:45:31;-0.70;99.90
10911;DHT22;5508;49.150;11.030;2023-02-14T20:48:33;-0.70;99.90
10911;DHT22;5508;49.150;11.030;2023-02-14T20:51:33;-0.80;99.90
10911;DHT22;5508;49.150;11.030;2023-02-14T20:54:37;-0.70;99.90
10911;DHT22;5508;49.150;11.030;2023-02-14T20:57:37;-0.70;99.90
10911;DHT22;5508;49.150;11.030;2023-02-14T21:00:38;-0.70;99.90
10911;DHT22;5508;49.150;11.030;2023-02-14T21:03:40;-0.80;99.90
10911;DHT22;5508;49.150;11.030;2023-02-14T21:06:41;-0.80;99.90
10911;DHT22;5508;49.150;11.030;2023-02-14T21:09:41;-0.90;99.90
10911;DHT22;5508;49.150;11.030;2023-02-14T21:12:42;-0.80;99.90
10911;DHT22;5508;49.150;11.030;2023-02-14T21:15:42;-0.90;99.90
10911;DHT22;5508;49.150;11.030;2023-02-14T21:18:45;-0.90;99.90
10911;DHT22;5508;49.150;11.030;2023-02-14T21:21:48;-1.00;99.90
10911;DHT22;5508;49.150;11.030;2023-02-14T21:24:49;-1.00;99.90
10911;DHT22;5508;49.150;11.030;2023-02-14T21:27:49;-1.10;99.90
10911;DHT22;5508;49.150;11.030;2023-02-14T21:30:50;-1.20;99.90
10911;DHT22;5508;49.150;11.030;2023-02-14T21:33:56;-1.00;99.90
10911;DHT22;5508;49.150;11.030;2023-02-14T21:36:56;-1.10;99.90
10911;DHT22;5508;49.150;11.030;2023-02-14T21:39:57;-1.00;99.90
10911;DHT22;5508;49.150;11.030;2023-02-14T21:42:58;-1.00;99.90